createdAt,value
2023-08-06T00:01:26.589Z,75.90
2023-08-06T00:03:54.066Z,76.40
2023-08-06T00:06:21.655Z,77.10
2023-08-06T00:08:48.963Z,76.90
2023-08-06T00:11:16.249Z,77.60
2023-08-06T00:13:43.680Z,77.80
2023-08-06T00:16:12.345Z,77.20
2023-08-06T00:18:40.634Z,77.10
2023-08-06T00:21:08.084Z,77.20
2023-08-06T00:23:35.426Z,77.20
2023-08-06T00:26:02.736Z,76.70
2023-08-06T00:28:30.044Z,76.80
2023-08-06T00:30:58.018Z,76.60
2023-08-06T00:33:25.910Z,76.40
2023-08-06T00:35:53.379Z,76.50
2023-08-06T00:38:20.702Z,76.80
2023-08-06T00:40:48.939Z,76.80
2023-08-06T00:43:17.439Z,76.90
2023-08-06T00:45:45.083Z,76.80
2023-08-06T00:48:12.566Z,76.20
2023-08-06T00:50:39.935Z,76.10
2023-08-06T00:53:10.109Z,76.70
2023-08-06T00:55:37.599Z,76.80
2023-08-06T00:58:05.847Z,77.50
2023-08-06T01:00:33.264Z,77.60
2023-08-06T01:03:01.111Z,77.80
2023-08-06T01:05:29.642Z,78.10
2023-08-06T01:08:20.456Z,78.20
2023-08-06T01:11:25.824Z,78.00
2023-08-06T01:14:03.322Z,77.90
2023-08-06T01:16:32.624Z,79.00
2023-08-06T01:19:00.170Z,79.10
2023-08-06T01:21:28.073Z,79.60
2023-08-06T01:23:56.113Z,80.10
2023-08-06T01:26:44.505Z,80.40
2023-08-06T01:29:31.315Z,81.00
2023-08-06T01:31:59.964Z,81.20
2023-08-06T01:34:32.430Z,82.30
2023-08-06T01:37:02.209Z,82.90
2023-08-06T01:39:29.580Z,82.80
2023-08-06T01:41:56.990Z,82.70
2023-08-06T01:44:25.074Z,82.80
2023-08-06T01:46:52.449Z,82.80
2023-08-06T01:49:19.736Z,82.30
2023-08-06T01:51:48.297Z,81.80
2023-08-06T01:54:15.614Z,82.10
2023-08-06T01:56:42.928Z,81.90
2023-08-06T01:59:10.292Z,81.30
2023-08-06T02:01:37.778Z,81.20
2023-08-06T02:04:05.190Z,80.90
2023-08-06T02:06:35.780Z,80.50
2023-08-06T02:09:03.275Z,80.30
2023-08-06T02:11:30.603Z,81.00
2023-08-06T02:13:57.976Z,80.80
2023-08-06T02:16:25.464Z,81.00
2023-08-06T02:18:52.836Z,81.40
2023-08-06T02:21:20.565Z,81.20
2023-08-06T02:23:47.871Z,80.90
2023-08-06T02:26:15.179Z,81.20
2023-08-06T02:28:42.537Z,81.20
2023-08-06T02:31:09.976Z,81.30
2023-08-06T02:33:38.472Z,81.70
2023-08-06T02:36:15.036Z,81.10
2023-08-06T02:38:42.503Z,80.90
2023-08-06T02:41:09.955Z,81.00
2023-08-06T02:43:37.308Z,81.30
2023-08-06T02:46:04.802Z,81.80
2023-08-06T02:48:32.203Z,81.50
2023-08-06T02:51:00.869Z,81.30
2023-08-06T02:53:29.870Z,81.80
2023-08-06T02:56:00.002Z,82.10
2023-08-06T02:58:35.649Z,82.20
2023-08-06T03:01:11.313Z,82.50
2023-08-06T03:03:51.736Z,83.10
2023-08-06T03:06:25.270Z,83.70
2023-08-06T03:08:55.348Z,84.00
2023-08-06T03:11:22.698Z,84.40
2023-08-06T03:13:54.413Z,84.20
2023-08-06T03:16:21.912Z,84.10
2023-08-06T03:18:59.809Z,84.60
2023-08-06T03:21:27.308Z,84.80
2023-08-06T03:23:54.837Z,84.70
2023-08-06T03:26:25.556Z,85.00
2023-08-06T03:28:52.983Z,85.10
2023-08-06T03:31:20.778Z,84.90
2023-08-06T03:33:48.992Z,85.10
2023-08-06T03:36:19.861Z,85.10
2023-08-06T03:38:47.869Z,85.00
2023-08-06T03:41:16.418Z,84.70
2023-08-06T03:43:46.303Z,84.40
2023-08-06T03:46:20.550Z,84.40
2023-08-06T03:48:47.992Z,84.50
2023-08-06T03:51:15.296Z,84.60
2023-08-06T03:53:45.211Z,84.50
2023-08-06T03:56:12.870Z,84.40
2023-08-06T03:58:40.632Z,84.50
2023-08-06T04:01:09.566Z,84.60
2023-08-06T04:03:44.816Z,84.90
2023-08-06T04:06:14.383Z,85.30
2023-08-06T04:08:42.042Z,85.50
2023-08-06T04:11:09.566Z,85.40
2023-08-06T04:13:37.043Z,85.40
2023-08-06T04:16:04.799Z,85.40
2023-08-06T04:18:33.474Z,85.60
2023-08-06T04:21:02.289Z,86.10
2023-08-06T04:23:29.835Z,86.10
2023-08-06T04:26:01.912Z,86.10
2023-08-06T04:28:33.357Z,85.70
2023-08-06T04:31:01.143Z,85.80
2023-08-06T04:33:30.246Z,85.60
2023-08-06T04:36:00.900Z,85.20
2023-08-06T04:38:28.837Z,85.00
2023-08-06T04:41:00.157Z,84.70
2023-08-06T04:43:27.892Z,85.10
2023-08-06T04:45:56.869Z,85.10
2023-08-06T04:48:24.333Z,85.60
2023-08-06T04:50:52.146Z,85.70
2023-08-06T04:53:19.725Z,85.80
2023-08-06T04:55:47.213Z,85.80
2023-08-06T04:58:14.911Z,85.90
2023-08-06T05:00:42.305Z,86.20
2023-08-06T05:03:09.645Z,85.90
2023-08-06T05:05:37.078Z,85.60
2023-08-06T05:08:06.558Z,85.60
2023-08-06T05:10:34.089Z,85.70
2023-08-06T05:13:01.870Z,85.40
2023-08-06T05:15:29.272Z,85.30
2023-08-06T05:17:56.647Z,85.40
2023-08-06T05:20:24.000Z,85.50
2023-08-06T05:22:52.274Z,85.50
2023-08-06T05:25:19.658Z,85.60
2023-08-06T05:27:54.408Z,85.60
2023-08-06T05:30:21.744Z,85.70
2023-08-06T05:32:49.101Z,85.60
2023-08-06T05:35:16.473Z,85.50
2023-08-06T05:37:43.919Z,85.30
2023-08-06T05:40:11.367Z,85.30
2023-08-06T05:42:38.696Z,85.20
2023-08-06T05:45:06.414Z,85.60
2023-08-06T05:47:33.800Z,85.80
2023-08-06T05:50:01.222Z,86.10
2023-08-06T05:52:28.616Z,86.00
2023-08-06T05:54:56.246Z,86.20
2023-08-06T05:57:23.599Z,86.30
2023-08-06T05:59:50.935Z,86.60
2023-08-06T06:02:19.888Z,86.90
2023-08-06T06:04:47.293Z,87.00
2023-08-06T06:07:15.358Z,87.10
2023-08-06T06:09:42.720Z,86.50
2023-08-06T06:12:10.045Z,86.50
2023-08-06T06:14:37.391Z,86.50
2023-08-06T06:17:04.900Z,86.80
2023-08-06T06:19:32.328Z,86.20
2023-08-06T06:21:59.688Z,86.50
2023-08-06T06:24:26.967Z,86.90
2023-08-06T06:26:54.314Z,87.50
2023-08-06T06:29:21.662Z,86.90
2023-08-06T06:31:49.047Z,87.00
2023-08-06T06:34:16.500Z,86.50
2023-08-06T06:36:44.101Z,86.50
2023-08-06T06:39:16.732Z,85.90
2023-08-06T06:41:45.396Z,86.10
2023-08-06T06:44:24.139Z,85.90
2023-08-06T06:46:51.715Z,85.90
2023-08-06T06:49:19.508Z,85.10
2023-08-06T06:51:54.357Z,84.50
2023-08-06T06:54:22.320Z,84.40
2023-08-06T06:56:56.366Z,83.90
2023-08-06T06:59:24.203Z,84.10
2023-08-06T07:01:56.700Z,84.50
2023-08-06T07:04:24.536Z,84.50
2023-08-06T07:06:54.128Z,84.10
2023-08-06T07:09:21.441Z,83.10
2023-08-06T07:11:48.933Z,82.70
2023-08-06T07:14:18.351Z,81.50
2023-08-06T07:16:45.791Z,80.30
2023-08-06T07:19:13.737Z,79.80
2023-08-06T07:21:41.490Z,78.60
2023-08-06T07:24:08.815Z,79.50
2023-08-06T07:26:56.465Z,80.20
2023-08-06T07:29:24.273Z,78.50
2023-08-06T07:31:52.310Z,77.40
2023-08-06T07:34:20.154Z,76.40
2023-08-06T07:36:48.842Z,76.40
2023-08-06T07:39:17.923Z,76.50
2023-08-06T07:41:47.519Z,74.80
2023-08-06T07:44:16.159Z,75.80
2023-08-06T07:46:43.940Z,75.80
2023-08-06T07:49:12.390Z,75.80
2023-08-06T07:51:39.973Z,75.20
2023-08-06T07:54:10.259Z,74.60
2023-08-06T07:56:38.014Z,72.10
2023-08-06T07:59:05.463Z,73.00
2023-08-06T08:01:33.031Z,72.50
2023-08-06T08:04:00.649Z,73.10
2023-08-06T08:06:43.337Z,73.50
2023-08-06T08:09:10.935Z,73.50
2023-08-06T08:11:38.313Z,73.70
2023-08-06T08:14:05.699Z,73.90
2023-08-06T08:16:33.801Z,73.90
2023-08-06T08:19:01.877Z,73.90
2023-08-06T08:21:30.411Z,73.20
2023-08-06T08:23:59.977Z,73.70
2023-08-06T08:26:29.260Z,74.50
2023-08-06T08:28:59.345Z,74.10
2023-08-06T08:31:30.307Z,73.00
2023-08-06T08:34:00.255Z,72.90
2023-08-06T08:36:28.042Z,73.80
2023-08-06T08:38:55.346Z,73.40
2023-08-06T08:41:22.700Z,73.30
2023-08-06T08:43:52.554Z,72.50
2023-08-06T08:46:20.790Z,72.90
2023-08-06T08:48:49.222Z,71.90
2023-08-06T08:51:18.516Z,69.80
2023-08-06T08:53:48.217Z,71.10
2023-08-06T08:56:15.912Z,69.90
2023-08-06T08:58:43.217Z,71.40
2023-08-06T09:01:11.180Z,69.90
2023-08-06T09:03:40.054Z,69.90
2023-08-06T09:06:12.706Z,68.20
2023-08-06T09:08:50.054Z,67.40
2023-08-06T09:11:18.139Z,66.40
2023-08-06T09:13:46.023Z,66.30
2023-08-06T09:16:13.375Z,66.70
2023-08-06T09:18:41.364Z,67.10
2023-08-06T09:21:15.283Z,66.90
2023-08-06T09:23:42.584Z,66.70
2023-08-06T09:26:16.141Z,65.80
2023-08-06T09:28:44.569Z,66.60
2023-08-06T09:31:12.190Z,65.60
2023-08-06T09:33:39.832Z,66.20
2023-08-06T09:36:11.800Z,67.90
2023-08-06T09:38:41.360Z,66.50
2023-08-06T09:41:09.235Z,63.10
2023-08-06T09:43:45.641Z,67.60
2023-08-06T09:46:15.297Z,69.50
2023-08-06T09:48:48.011Z,67.40
2023-08-06T09:51:16.278Z,65.20
2023-08-06T09:53:44.004Z,60.80
2023-08-06T09:56:15.026Z,62.00
2023-08-06T09:58:43.345Z,64.00
2023-08-06T10:01:13.406Z,64.00
2023-08-06T10:03:41.964Z,61.80
2023-08-06T10:06:13.238Z,62.00
2023-08-06T10:08:42.614Z,58.20
2023-08-06T10:11:11.586Z,57.00
2023-08-06T10:13:39.647Z,55.50
2023-08-06T10:16:07.817Z,56.60
2023-08-06T10:18:38.686Z,54.40
2023-08-06T10:21:09.775Z,55.70
2023-08-06T10:23:39.517Z,56.80
2023-08-06T10:26:06.892Z,55.40
2023-08-06T10:28:39.631Z,54.40
2023-08-06T10:31:07.746Z,55.50
2023-08-06T10:33:47.956Z,54.70
2023-08-06T10:36:16.128Z,54.80
2023-08-06T10:38:48.852Z,53.70
2023-08-06T10:41:20.001Z,56.30
2023-08-06T10:43:50.627Z,55.10
2023-08-06T10:46:30.233Z,55.50
2023-08-06T10:48:58.158Z,55.00
2023-08-06T10:51:25.544Z,55.50
2023-08-06T10:53:53.208Z,54.40
2023-08-06T10:56:26.390Z,54.40
2023-08-06T10:58:58.582Z,52.30
2023-08-06T11:01:30.016Z,50.80
2023-08-06T11:04:02.322Z,51.50
2023-08-06T11:06:29.761Z,51.10
2023-08-06T11:08:57.161Z,52.50
2023-08-06T11:11:25.339Z,52.30
2023-08-06T11:13:53.395Z,51.50
2023-08-06T11:16:24.558Z,48.10
2023-08-06T11:18:53.901Z,51.00
2023-08-06T11:21:22.401Z,51.20
2023-08-06T11:23:50.116Z,52.10
2023-08-06T11:26:21.613Z,49.90
2023-08-06T11:28:49.039Z,49.40
2023-08-06T11:31:25.797Z,50.00
2023-08-06T11:33:54.270Z,49.60
2023-08-06T11:36:37.602Z,47.90
2023-08-06T11:39:07.891Z,50.60
2023-08-06T11:41:39.033Z,53.00
2023-08-06T11:44:06.446Z,51.50
2023-08-06T11:46:53.996Z,52.80
2023-08-06T11:49:22.597Z,54.10
2023-08-06T11:51:50.347Z,52.10
2023-08-06T11:54:17.734Z,52.70
2023-08-06T11:56:47.506Z,54.20
2023-08-06T11:59:14.924Z,53.40
2023-08-06T12:01:42.331Z,52.50
2023-08-06T12:04:09.767Z,52.10
2023-08-06T12:06:44.459Z,52.30
2023-08-06T12:09:11.911Z,53.70
2023-08-06T12:11:39.287Z,53.00
2023-08-06T12:14:06.649Z,53.90
2023-08-06T12:16:34.040Z,53.00
2023-08-06T12:19:01.820Z,52.80
2023-08-06T12:21:29.325Z,50.90
2023-08-06T12:23:56.670Z,52.00
2023-08-06T12:26:23.982Z,52.20
2023-08-06T12:28:51.346Z,56.40
2023-08-06T12:31:18.706Z,57.00
2023-08-06T12:33:47.106Z,56.90
2023-08-06T12:36:14.328Z,55.50
2023-08-06T12:38:41.582Z,55.20
2023-08-06T12:41:08.979Z,55.60
2023-08-06T12:43:36.367Z,56.20
2023-08-06T12:46:04.348Z,56.40
2023-08-06T12:48:32.669Z,57.10
2023-08-06T12:51:00.344Z,57.90
2023-08-06T12:53:28.962Z,55.10
2023-08-06T12:55:56.298Z,56.40
2023-08-06T12:58:23.684Z,53.60
2023-08-06T13:00:50.993Z,51.90
2023-08-06T13:03:18.548Z,50.50
2023-08-06T13:05:46.260Z,49.60
2023-08-06T13:08:13.557Z,48.90
2023-08-06T13:10:41.011Z,49.00
2023-08-06T13:13:08.410Z,49.40
2023-08-06T13:15:36.017Z,50.50
2023-08-06T13:18:03.511Z,49.90
2023-08-06T13:20:32.048Z,50.20
2023-08-06T13:23:02.157Z,48.10
2023-08-06T13:25:29.817Z,48.20
2023-08-06T13:27:57.109Z,48.00
2023-08-06T13:30:24.546Z,48.10
2023-08-06T13:32:52.013Z,48.30
2023-08-06T13:35:19.455Z,49.50
2023-08-06T13:37:49.043Z,47.00
2023-08-06T13:40:16.809Z,47.90
2023-08-06T13:42:44.618Z,49.10
2023-08-06T13:45:11.994Z,48.70
2023-08-06T13:47:39.540Z,48.70
2023-08-06T13:50:07.215Z,47.10
2023-08-06T13:52:36.306Z,47.00
2023-08-06T13:55:05.064Z,47.40
2023-08-06T13:57:32.849Z,48.00
2023-08-06T14:00:00.249Z,47.90
2023-08-06T14:02:28.130Z,46.40
2023-08-06T14:04:55.777Z,46.40
2023-08-06T14:07:23.094Z,47.10
2023-08-06T14:09:50.590Z,46.50
2023-08-06T14:12:18.090Z,47.20
2023-08-06T14:14:45.502Z,48.20
2023-08-06T14:17:12.825Z,48.30
2023-08-06T14:19:40.465Z,49.30
2023-08-06T14:22:07.754Z,49.30
2023-08-06T14:24:35.161Z,50.60
2023-08-06T14:27:04.699Z,49.20
2023-08-06T14:29:32.037Z,49.10
2023-08-06T14:31:59.457Z,48.20
2023-08-06T14:34:26.835Z,46.70
2023-08-06T14:36:54.400Z,48.30
2023-08-06T14:39:21.837Z,43.80
2023-08-06T14:41:49.277Z,43.80
2023-08-06T14:44:16.584Z,44.00
2023-08-06T14:46:44.099Z,44.80
2023-08-06T14:49:11.450Z,45.80
2023-08-06T14:51:40.008Z,47.20
2023-08-06T14:54:07.442Z,49.10
2023-08-06T14:56:34.758Z,50.60
2023-08-06T14:59:02.312Z,51.50
2023-08-06T15:01:29.753Z,51.90
2023-08-06T15:03:57.015Z,52.60
2023-08-06T15:06:24.446Z,52.20
2023-08-06T15:08:51.834Z,53.20
2023-08-06T15:11:19.107Z,50.90
2023-08-06T15:13:46.533Z,49.40
2023-08-06T15:16:13.895Z,46.80
2023-08-06T15:18:41.270Z,44.60
2023-08-06T15:21:08.640Z,41.00
2023-08-06T15:23:36.110Z,38.10
2023-08-06T15:26:03.827Z,37.70
2023-08-06T15:28:31.307Z,37.50
2023-08-06T15:30:58.717Z,34.30
2023-08-06T15:33:26.101Z,35.80
2023-08-06T15:35:53.431Z,34.90
2023-08-06T15:38:20.675Z,34.50
2023-08-06T15:40:47.968Z,36.00
2023-08-06T15:43:15.287Z,37.80
2023-08-06T15:45:42.689Z,39.10
2023-08-06T15:48:12.858Z,39.40
2023-08-06T15:50:42.358Z,38.60
2023-08-06T15:53:13.213Z,37.70
2023-08-06T15:55:40.769Z,37.80
2023-08-06T15:58:08.073Z,36.80
2023-08-06T16:00:35.431Z,36.80
2023-08-06T16:03:04.009Z,36.70
2023-08-06T16:05:32.144Z,36.20
2023-08-06T16:08:00.009Z,35.40
2023-08-06T16:10:27.317Z,34.20
2023-08-06T16:12:54.602Z,34.90
2023-08-06T16:15:21.914Z,34.40
2023-08-06T16:17:49.236Z,35.80
2023-08-06T16:20:16.837Z,35.50
2023-08-06T16:22:44.440Z,35.60
2023-08-06T16:25:13.083Z,36.90
2023-08-06T16:27:41.038Z,35.70
2023-08-06T16:30:08.914Z,35.00
2023-08-06T16:32:38.132Z,34.50
2023-08-06T16:35:07.852Z,33.80
2023-08-06T16:37:35.161Z,34.70
2023-08-06T16:40:04.882Z,36.10
2023-08-06T16:42:32.185Z,37.50
2023-08-06T16:44:59.482Z,37.40
2023-08-06T16:47:26.897Z,37.50
2023-08-06T16:49:54.506Z,36.80
2023-08-06T16:52:21.881Z,36.30
2023-08-06T16:54:50.305Z,37.20
2023-08-06T16:57:17.730Z,37.20
2023-08-06T16:59:45.027Z,36.80
2023-08-06T17:02:12.505Z,37.10
2023-08-06T17:04:39.847Z,37.70
2023-08-06T17:07:07.167Z,37.40
2023-08-06T17:09:34.541Z,36.60
2023-08-06T17:12:02.364Z,36.90
2023-08-06T17:14:30.685Z,36.10
2023-08-06T17:16:58.430Z,36.30
2023-08-06T17:19:25.946Z,35.80
2023-08-06T17:21:53.199Z,35.60
2023-08-06T17:24:20.492Z,35.90
2023-08-06T17:26:47.908Z,37.60
2023-08-06T17:29:15.253Z,40.10
2023-08-06T17:31:42.658Z,42.40
2023-08-06T17:34:10.011Z,43.70
2023-08-06T17:36:37.312Z,45.80
2023-08-06T17:39:04.601Z,47.00
2023-08-06T17:41:31.929Z,48.40
2023-08-06T17:43:59.387Z,49.80
2023-08-06T17:46:28.769Z,50.60
2023-08-06T17:48:57.690Z,51.50
2023-08-06T17:51:25.023Z,51.80
2023-08-06T17:53:52.534Z,52.10
2023-08-06T17:56:19.970Z,53.00
2023-08-06T17:58:47.375Z,54.10
2023-08-06T18:01:14.975Z,54.10
2023-08-06T18:03:44.629Z,55.60
2023-08-06T18:06:12.560Z,56.50
2023-08-06T18:08:40.153Z,56.00
2023-08-06T18:11:07.532Z,57.40
2023-08-06T18:13:36.239Z,56.80
2023-08-06T18:16:04.043Z,56.30
2023-08-06T18:18:31.449Z,58.10
2023-08-06T18:20:59.114Z,57.00
2023-08-06T18:23:27.033Z,58.20
2023-08-06T18:25:57.323Z,58.90
2023-08-06T18:28:26.840Z,59.70
2023-08-06T18:30:54.191Z,60.20
2023-08-06T18:33:22.639Z,60.00
2023-08-06T18:35:50.060Z,60.50
2023-08-06T18:38:17.575Z,60.70
2023-08-06T18:40:45.038Z,60.80
2023-08-06T18:43:12.359Z,60.70
2023-08-06T18:45:42.536Z,61.00
2023-08-06T18:48:11.140Z,61.10
2023-08-06T18:50:38.632Z,61.90
2023-08-06T18:53:06.135Z,62.50
2023-08-06T18:55:35.880Z,62.40
2023-08-06T18:58:09.539Z,63.20
2023-08-06T19:00:40.516Z,63.60
2023-08-06T19:03:09.901Z,63.20
2023-08-06T19:05:41.456Z,63.30
2023-08-06T19:08:09.238Z,64.30
2023-08-06T19:10:37.064Z,64.90
2023-08-06T19:13:10.090Z,65.20
2023-08-06T19:15:38.369Z,65.00
2023-08-06T19:18:06.369Z,65.20
2023-08-06T19:20:36.788Z,65.50
2023-08-06T19:23:04.376Z,65.70
2023-08-06T19:25:33.712Z,65.80
2023-08-06T19:28:01.147Z,66.20
2023-08-06T19:30:28.506Z,66.20
2023-08-06T19:32:56.014Z,66.60
2023-08-06T19:35:25.474Z,66.70
2023-08-06T19:37:52.924Z,67.00
2023-08-06T19:40:20.221Z,67.80
2023-08-06T19:42:47.529Z,68.20
2023-08-06T19:45:14.958Z,69.00
2023-08-06T19:47:44.480Z,68.80
2023-08-06T19:50:12.110Z,68.90
2023-08-06T19:52:39.894Z,68.90
2023-08-06T19:55:07.549Z,69.10
2023-08-06T19:57:34.896Z,69.60
2023-08-06T20:00:02.326Z,69.80
2023-08-06T20:02:40.312Z,70.00
2023-08-06T20:05:07.994Z,69.80
2023-08-06T20:07:35.277Z,70.00
2023-08-06T20:10:02.669Z,70.30
2023-08-06T20:12:29.958Z,70.70
2023-08-06T20:14:58.392Z,70.80
2023-08-06T20:17:25.794Z,71.30
2023-08-06T20:19:53.079Z,71.40
2023-08-06T20:22:20.385Z,71.50
2023-08-06T20:24:48.697Z,71.90
2023-08-06T20:27:16.398Z,72.00
2023-08-06T20:29:43.739Z,72.40
2023-08-06T20:32:11.075Z,72.20
2023-08-06T20:34:38.395Z,72.50
2023-08-06T20:37:06.189Z,72.10
2023-08-06T20:39:33.454Z,71.40
2023-08-06T20:42:00.735Z,71.00
2023-08-06T20:44:30.814Z,71.30
2023-08-06T20:46:58.165Z,71.20
2023-08-06T20:49:25.445Z,71.10
2023-08-06T20:51:53.057Z,72.00
2023-08-06T20:54:20.665Z,72.30
2023-08-06T20:56:48.153Z,72.50
2023-08-06T20:59:15.484Z,73.90
2023-08-06T21:01:42.783Z,74.30
2023-08-06T21:04:11.711Z,74.80
2023-08-06T21:06:39.123Z,75.20
2023-08-06T21:09:07.879Z,74.80
2023-08-06T21:11:35.204Z,74.20
2023-08-06T21:14:02.405Z,74.00
2023-08-06T21:16:30.134Z,74.10
2023-08-06T21:18:57.620Z,74.60
2023-08-06T21:21:24.929Z,75.00
2023-08-06T21:23:52.228Z,75.30
2023-08-06T21:26:19.617Z,74.40
2023-08-06T21:28:46.970Z,73.90
2023-08-06T21:31:14.289Z,74.30
2023-08-06T21:33:43.533Z,74.70
2023-08-06T21:36:11.552Z,74.20
2023-08-06T21:38:40.852Z,74.10
2023-08-06T21:41:10.170Z,74.60
2023-08-06T21:43:39.696Z,74.80
2023-08-06T21:46:08.836Z,74.70
2023-08-06T21:48:37.711Z,75.20
2023-08-06T21:51:07.389Z,76.30
2023-08-06T21:53:36.374Z,76.50
2023-08-06T21:56:11.849Z,77.00
2023-08-06T21:58:41.581Z,77.00
2023-08-06T22:01:10.398Z,77.30
2023-08-06T22:03:38.939Z,77.30
2023-08-06T22:06:08.562Z,77.80
2023-08-06T22:08:36.064Z,78.00
2023-08-06T22:11:04.137Z,78.20
2023-08-06T22:13:32.088Z,77.80
2023-08-06T22:16:00.009Z,77.80
2023-08-06T22:18:27.728Z,78.40
2023-08-06T22:20:58.498Z,79.00
2023-08-06T22:23:26.073Z,79.30
2023-08-06T22:25:54.072Z,80.20
2023-08-06T22:28:22.436Z,80.40
2023-08-06T22:30:50.152Z,80.30
2023-08-06T22:33:22.932Z,80.80
2023-08-06T22:35:51.696Z,81.20
2023-08-06T22:38:19.521Z,81.20
2023-08-06T22:40:46.941Z,81.10
2023-08-06T22:43:14.224Z,81.50
2023-08-06T22:45:41.581Z,81.10
2023-08-06T22:48:08.913Z,81.70
2023-08-06T22:50:36.226Z,81.60
2023-08-06T22:53:03.534Z,81.80
2023-08-06T22:55:57.568Z,82.50
2023-08-06T22:58:18.086Z,82.80
2023-08-06T23:00:45.406Z,82.90
2023-08-06T23:03:13.326Z,83.60
2023-08-06T23:05:41.424Z,83.90
2023-08-06T23:08:09.299Z,83.50
2023-08-06T23:10:36.723Z,83.40
2023-08-06T23:13:07.489Z,82.50
2023-08-06T23:15:34.940Z,82.20
2023-08-06T23:18:02.422Z,82.10
2023-08-06T23:20:29.930Z,82.00
2023-08-06T23:22:57.235Z,82.40
2023-08-06T23:25:24.567Z,82.30
2023-08-06T23:27:51.906Z,82.70
2023-08-06T23:30:19.237Z,82.40
2023-08-06T23:32:48.345Z,82.40
2023-08-06T23:35:25.489Z,83.10
2023-08-06T23:37:52.820Z,82.80
2023-08-06T23:40:21.854Z,82.60
2023-08-06T23:42:49.254Z,82.50
2023-08-06T23:45:16.784Z,82.60
2023-08-06T23:47:44.449Z,82.90
2023-08-06T23:50:11.861Z,83.20
2023-08-06T23:52:39.170Z,83.20
2023-08-06T23:55:06.712Z,83.50
2023-08-06T23:57:34.165Z,83.70
